sensor_id;sensor_type;location;lat;lon;timestamp;P1;durP1;ratioP1;P2;durP2;ratioP2
6821;SDS011;3449;48.728;8.968;2024-03-06T00:00:00;9.40;;;3.63;;
6821;SDS011;3449;48.728;8.968;2024-03-06T00:02:28;6.13;;;4.20;;
6821;SDS011;3449;48.728;8.968;2024-03-06T00:04:55;6.83;;;4.30;;
6821;SDS011;3449;48.728;8.968;2024-03-06T00:07:23;7.70;;;4.87;;
6821;SDS011;3449;48.728;8.968;2024-03-06T00:09:51;8.00;;;3.60;;
6821;SDS011;3449;48.728;8.968;2024-03-06T00:12:18;8.20;;;4.20;;
6821;SDS011;3449;48.728;8.968;2024-03-06T00:14:45;7.53;;;4.00;;
6821;SDS011;3449;48.728;8.968;2024-03-06T00:17:12;6.10;;;4.23;;
6821;SDS011;3449;48.728;8.968;2024-03-06T00:19:38;6.83;;;3.60;;
6821;SDS011;3449;48.728;8.968;2024-03-06T00:22:05;9.43;;;5.23;;
6821;SDS011;3449;48.728;8.968;2024-03-06T00:24:34;10.30;;;5.10;;
6821;SDS011;3449;48.728;8.968;2024-03-06T00:27:01;8.33;;;5.60;;
6821;SDS011;3449;48.728;8.968;2024-03-06T00:29:29;7.30;;;5.00;;
6821;SDS011;3449;48.728;8.968;2024-03-06T00:31:56;8.23;;;5.53;;
6821;SDS011;3449;48.728;8.968;2024-03-06T00:34:23;6.47;;;4.87;;
6821;SDS011;3449;48.728;8.968;2024-03-06T00:36:52;5.90;;;4.67;;
6821;SDS011;3449;48.728;8.968;2024-03-06T00:39:19;7.77;;;4.87;;
6821;SDS011;3449;48.728;8.968;2024-03-06T00:41:47;7.43;;;5.30;;
6821;SDS011;3449;48.728;8.968;2024-03-06T00:44:15;10.33;;;5.77;;
6821;SDS011;3449;48.728;8.968;2024-03-06T00:46:42;10.10;;;5.57;;
6821;SDS011;3449;48.728;8.968;2024-03-06T00:49:09;7.83;;;4.90;;
6821;SDS011;3449;48.728;8.968;2024-03-06T00:51:35;9.67;;;5.63;;
6821;SDS011;3449;48.728;8.968;2024-03-06T00:54:02;8.97;;;5.17;;
6821;SDS011;3449;48.728;8.968;2024-03-06T00:56:29;9.63;;;4.80;;
6821;SDS011;3449;48.728;8.968;2024-03-06T00:58:58;10.27;;;5.40;;
6821;SDS011;3449;48.728;8.968;2024-03-06T01:01:25;10.50;;;5.23;;
6821;SDS011;3449;48.728;8.968;2024-03-06T01:03:52;9.40;;;5.67;;
6821;SDS011;3449;48.728;8.968;2024-03-06T01:06:20;7.07;;;5.30;;
6821;SDS011;3449;48.728;8.968;2024-03-06T01:08:47;9.37;;;5.77;;
6821;SDS011;3449;48.728;8.968;2024-03-06T01:11:14;8.90;;;5.90;;
6821;SDS011;3449;48.728;8.968;2024-03-06T01:13:40;9.53;;;5.33;;
6821;SDS011;3449;48.728;8.968;2024-03-06T01:16:09;9.27;;;6.10;;
6821;SDS011;3449;48.728;8.968;2024-03-06T01:18:35;11.63;;;6.60;;
6821;SDS011;3449;48.728;8.968;2024-03-06T01:21:02;10.10;;;5.87;;
6821;SDS011;3449;48.728;8.968;2024-03-06T01:23:29;10.10;;;5.33;;
6821;SDS011;3449;48.728;8.968;2024-03-06T01:25:56;9.50;;;5.10;;
6821;SDS011;3449;48.728;8.968;2024-03-06T01:28:23;6.17;;;4.47;;
6821;SDS011;3449;48.728;8.968;2024-03-06T01:30:50;7.23;;;4.60;;
6821;SDS011;3449;48.728;8.968;2024-03-06T01:33:18;9.83;;;5.20;;
6821;SDS011;3449;48.728;8.968;2024-03-06T01:35:45;6.80;;;4.87;;
6821;SDS011;3449;48.728;8.968;2024-03-06T01:38:12;9.60;;;5.50;;
6821;SDS011;3449;48.728;8.968;2024-03-06T01:40:42;7.83;;;5.20;;
6821;SDS011;3449;48.728;8.968;2024-03-06T01:43:17;7.53;;;5.13;;
6821;SDS011;3449;48.728;8.968;2024-03-06T01:45:47;6.80;;;4.53;;
6821;SDS011;3449;48.728;8.968;2024-03-06T01:48:15;6.03;;;3.77;;
6821;SDS011;3449;48.728;8.968;2024-03-06T01:50:43;7.43;;;4.43;;
6821;SDS011;3449;48.728;8.968;2024-03-06T01:53:10;3.60;;;3.00;;
6821;SDS011;3449;48.728;8.968;2024-03-06T01:55:39;3.57;;;3.00;;
6821;SDS011;3449;48.728;8.968;2024-03-06T01:58:06;4.97;;;3.17;;
6821;SDS011;3449;48.728;8.968;2024-03-06T02:00:34;7.17;;;3.40;;
6821;SDS011;3449;48.728;8.968;2024-03-06T02:03:01;7.03;;;3.00;;
6821;SDS011;3449;48.728;8.968;2024-03-06T02:05:29;4.50;;;3.10;;
6821;SDS011;3449;48.728;8.968;2024-03-06T02:07:58;3.70;;;3.30;;
6821;SDS011;3449;48.728;8.968;2024-03-06T02:10:27;4.93;;;3.27;;
6821;SDS011;3449;48.728;8.968;2024-03-06T02:12:54;6.73;;;3.70;;
6821;SDS011;3449;48.728;8.968;2024-03-06T02:15:21;4.03;;;3.17;;
6821;SDS011;3449;48.728;8.968;2024-03-06T02:17:48;4.47;;;2.90;;
6821;SDS011;3449;48.728;8.968;2024-03-06T02:20:16;5.20;;;3.03;;
6821;SDS011;3449;48.728;8.968;2024-03-06T02:22:44;4.77;;;2.93;;
6821;SDS011;3449;48.728;8.968;2024-03-06T02:25:11;11.10;;;2.83;;
6821;SDS011;3449;48.728;8.968;2024-03-06T02:27:40;4.50;;;2.90;;
6821;SDS011;3449;48.728;8.968;2024-03-06T02:30:07;5.30;;;2.90;;
6821;SDS011;3449;48.728;8.968;2024-03-06T02:32:34;2.70;;;2.50;;
6821;SDS011;3449;48.728;8.968;2024-03-06T02:35:01;7.77;;;4.00;;
6821;SDS011;3449;48.728;8.968;2024-03-06T02:37:28;8.37;;;4.53;;
6821;SDS011;3449;48.728;8.968;2024-03-06T02:39:57;8.60;;;4.73;;
6821;SDS011;3449;48.728;8.968;2024-03-06T02:42:24;6.03;;;4.13;;
6821;SDS011;3449;48.728;8.968;2024-03-06T02:44:52;17.77;;;5.87;;
6821;SDS011;3449;48.728;8.968;2024-03-06T02:47:19;11.87;;;5.80;;
6821;SDS011;3449;48.728;8.968;2024-03-06T02:49:46;7.07;;;5.10;;
6821;SDS011;3449;48.728;8.968;2024-03-06T02:52:13;6.60;;;4.37;;
6821;SDS011;3449;48.728;8.968;2024-03-06T02:54:40;9.13;;;5.10;;
6821;SDS011;3449;48.728;8.968;2024-03-06T02:57:08;8.20;;;4.83;;
6821;SDS011;3449;48.728;8.968;2024-03-06T02:59:35;10.00;;;5.63;;
6821;SDS011;3449;48.728;8.968;2024-03-06T03:02:02;7.90;;;4.90;;
6821;SDS011;3449;48.728;8.968;2024-03-06T03:04:29;8.13;;;5.17;;
6821;SDS011;3449;48.728;8.968;2024-03-06T03:06:56;6.70;;;4.53;;
6821;SDS011;3449;48.728;8.968;2024-03-06T03:09:23;8.00;;;4.30;;
6821;SDS011;3449;48.728;8.968;2024-03-06T03:11:50;10.80;;;4.57;;
6821;SDS011;3449;48.728;8.968;2024-03-06T03:14:18;7.10;;;4.07;;
6821;SDS011;3449;48.728;8.968;2024-03-06T03:16:45;3.93;;;3.53;;
6821;SDS011;3449;48.728;8.968;2024-03-06T03:19:12;6.07;;;3.57;;
6821;SDS011;3449;48.728;8.968;2024-03-06T03:21:42;4.80;;;3.40;;
6821;SDS011;3449;48.728;8.968;2024-03-06T03:24:09;6.30;;;3.30;;
6821;SDS011;3449;48.728;8.968;2024-03-06T03:26:36;2.90;;;2.50;;
6821;SDS011;3449;48.728;8.968;2024-03-06T03:29:03;4.63;;;2.53;;
6821;SDS011;3449;48.728;8.968;2024-03-06T03:31:31;4.10;;;3.10;;
6821;SDS011;3449;48.728;8.968;2024-03-06T03:33:58;3.03;;;2.70;;
6821;SDS011;3449;48.728;8.968;2024-03-06T03:36:25;8.00;;;3.90;;
6821;SDS011;3449;48.728;8.968;2024-03-06T03:38:52;6.40;;;2.90;;
6821;SDS011;3449;48.728;8.968;2024-03-06T03:41:19;5.90;;;2.87;;
6821;SDS011;3449;48.728;8.968;2024-03-06T03:43:46;5.20;;;3.70;;
6821;SDS011;3449;48.728;8.968;2024-03-06T03:46:12;3.50;;;2.90;;
6821;SDS011;3449;48.728;8.968;2024-03-06T03:48:41;4.50;;;3.17;;
6821;SDS011;3449;48.728;8.968;2024-03-06T03:51:08;4.40;;;3.17;;
6821;SDS011;3449;48.728;8.968;2024-03-06T03:53:35;5.07;;;3.40;;
6821;SDS011;3449;48.728;8.968;2024-03-06T03:56:02;7.00;;;3.83;;
6821;SDS011;3449;48.728;8.968;2024-03-06T03:58:29;6.10;;;3.43;;
6821;SDS011;3449;48.728;8.968;2024-03-06T04:00:56;3.77;;;3.00;;
6821;SDS011;3449;48.728;8.968;2024-03-06T04:03:23;4.30;;;3.10;;
6821;SDS011;3449;48.728;8.968;2024-03-06T04:05:51;4.33;;;3.17;;
6821;SDS011;3449;48.728;8.968;2024-03-06T04:08:18;3.90;;;2.63;;
6821;SDS011;3449;48.728;8.968;2024-03-06T04:10:44;3.60;;;2.53;;
6821;SDS011;3449;48.728;8.968;2024-03-06T04:13:11;3.43;;;2.70;;
6821;SDS011;3449;48.728;8.968;2024-03-06T04:15:39;2.70;;;2.10;;
6821;SDS011;3449;48.728;8.968;2024-03-06T04:18:05;3.47;;;2.80;;
6821;SDS011;3449;48.728;8.968;2024-03-06T04:20:32;3.27;;;2.67;;
6821;SDS011;3449;48.728;8.968;2024-03-06T04:23:01;4.90;;;2.97;;
6821;SDS011;3449;48.728;8.968;2024-03-06T04:25:28;6.60;;;2.87;;
6821;SDS011;3449;48.728;8.968;2024-03-06T04:27:54;4.60;;;3.10;;
6821;SDS011;3449;48.728;8.968;2024-03-06T04:30:21;4.40;;;2.87;;
6821;SDS011;3449;48.728;8.968;2024-03-06T04:32:48;8.27;;;3.57;;
6821;SDS011;3449;48.728;8.968;2024-03-06T04:35:15;7.80;;;3.40;;
6821;SDS011;3449;48.728;8.968;2024-03-06T04:37:42;5.03;;;3.40;;
6821;SDS011;3449;48.728;8.968;2024-03-06T04:40:11;6.80;;;3.60;;
6821;SDS011;3449;48.728;8.968;2024-03-06T04:42:40;6.50;;;3.83;;
6821;SDS011;3449;48.728;8.968;2024-03-06T04:45:10;3.50;;;3.00;;
6821;SDS011;3449;48.728;8.968;2024-03-06T04:47:37;5.23;;;3.60;;
6821;SDS011;3449;48.728;8.968;2024-03-06T04:50:07;3.97;;;3.30;;
6821;SDS011;3449;48.728;8.968;2024-03-06T04:52:35;3.17;;;2.33;;
6821;SDS011;3449;48.728;8.968;2024-03-06T04:55:02;6.37;;;4.10;;
6821;SDS011;3449;48.728;8.968;2024-03-06T04:57:30;5.20;;;3.70;;
6821;SDS011;3449;48.728;8.968;2024-03-06T04:59:57;3.87;;;2.93;;
6821;SDS011;3449;48.728;8.968;2024-03-06T05:02:24;4.73;;;3.60;;
6821;SDS011;3449;48.728;8.968;2024-03-06T05:04:51;7.80;;;4.67;;
6821;SDS011;3449;48.728;8.968;2024-03-06T05:07:18;8.13;;;4.40;;
6821;SDS011;3449;48.728;8.968;2024-03-06T05:09:44;6.40;;;3.70;;
6821;SDS011;3449;48.728;8.968;2024-03-06T05:12:11;5.73;;;3.10;;
6821;SDS011;3449;48.728;8.968;2024-03-06T05:14:40;8.40;;;4.03;;
6821;SDS011;3449;48.728;8.968;2024-03-06T05:17:06;6.40;;;4.07;;
6821;SDS011;3449;48.728;8.968;2024-03-06T05:19:35;5.23;;;3.87;;
6821;SDS011;3449;48.728;8.968;2024-03-06T05:22:02;6.10;;;4.20;;
6821;SDS011;3449;48.728;8.968;2024-03-06T05:24:30;6.70;;;4.27;;
6821;SDS011;3449;48.728;8.968;2024-03-06T05:26:57;7.07;;;4.33;;
6821;SDS011;3449;48.728;8.968;2024-03-06T05:29:24;6.90;;;3.67;;
6821;SDS011;3449;48.728;8.968;2024-03-06T05:31:52;4.73;;;3.90;;
6821;SDS011;3449;48.728;8.968;2024-03-06T05:34:21;5.13;;;3.50;;
6821;SDS011;3449;48.728;8.968;2024-03-06T05:36:47;6.07;;;3.80;;
6821;SDS011;3449;48.728;8.968;2024-03-06T05:39:14;6.47;;;3.60;;
6821;SDS011;3449;48.728;8.968;2024-03-06T05:41:42;6.80;;;4.00;;
6821;SDS011;3449;48.728;8.968;2024-03-06T05:44:09;7.53;;;3.83;;
6821;SDS011;3449;48.728;8.968;2024-03-06T05:46:37;7.23;;;4.40;;
6821;SDS011;3449;48.728;8.968;2024-03-06T05:49:05;6.60;;;3.53;;
6821;SDS011;3449;48.728;8.968;2024-03-06T05:51:32;5.30;;;4.43;;
6821;SDS011;3449;48.728;8.968;2024-03-06T05:53:59;5.30;;;4.17;;
6821;SDS011;3449;48.728;8.968;2024-03-06T05:56:26;7.40;;;4.20;;
6821;SDS011;3449;48.728;8.968;2024-03-06T05:58:53;6.50;;;3.67;;
6821;SDS011;3449;48.728;8.968;2024-03-06T06:01:20;6.43;;;3.70;;
6821;SDS011;3449;48.728;8.968;2024-03-06T06:03:47;4.87;;;3.50;;
6821;SDS011;3449;48.728;8.968;2024-03-06T06:06:15;5.70;;;3.20;;
6821;SDS011;3449;48.728;8.968;2024-03-06T06:08:44;6.50;;;3.90;;
6821;SDS011;3449;48.728;8.968;2024-03-06T06:11:11;4.70;;;3.97;;
6821;SDS011;3449;48.728;8.968;2024-03-06T06:13:38;7.17;;;4.00;;
6821;SDS011;3449;48.728;8.968;2024-03-06T06:16:05;4.90;;;3.50;;
6821;SDS011;3449;48.728;8.968;2024-03-06T06:18:32;6.70;;;4.00;;
6821;SDS011;3449;48.728;8.968;2024-03-06T06:20:59;4.93;;;3.40;;
6821;SDS011;3449;48.728;8.968;2024-03-06T06:23:27;11.33;;;3.80;;
6821;SDS011;3449;48.728;8.968;2024-03-06T06:25:54;5.30;;;3.60;;
6821;SDS011;3449;48.728;8.968;2024-03-06T06:28:21;5.23;;;3.43;;
6821;SDS011;3449;48.728;8.968;2024-03-06T06:30:49;6.63;;;3.50;;
6821;SDS011;3449;48.728;8.968;2024-03-06T06:33:17;15.97;;;5.10;;
6821;SDS011;3449;48.728;8.968;2024-03-06T06:35:44;8.60;;;3.80;;
6821;SDS011;3449;48.728;8.968;2024-03-06T06:38:11;5.70;;;3.33;;
6821;SDS011;3449;48.728;8.968;2024-03-06T06:40:39;7.50;;;3.50;;
6821;SDS011;3449;48.728;8.968;2024-03-06T06:43:06;7.63;;;3.27;;
6821;SDS011;3449;48.728;8.968;2024-03-06T06:45:33;20.37;;;5.93;;
6821;SDS011;3449;48.728;8.968;2024-03-06T06:48:00;12.23;;;4.63;;
6821;SDS011;3449;48.728;8.968;2024-03-06T06:50:27;4.10;;;3.03;;
6821;SDS011;3449;48.728;8.968;2024-03-06T06:52:55;4.03;;;3.60;;
6821;SDS011;3449;48.728;8.968;2024-03-06T06:55:24;4.53;;;3.33;;
6821;SDS011;3449;48.728;8.968;2024-03-06T06:57:53;5.97;;;3.63;;
6821;SDS011;3449;48.728;8.968;2024-03-06T07:00:20;6.13;;;3.87;;
6821;SDS011;3449;48.728;8.968;2024-03-06T07:02:48;9.77;;;3.27;;
6821;SDS011;3449;48.728;8.968;2024-03-06T07:05:15;7.17;;;3.60;;
6821;SDS011;3449;48.728;8.968;2024-03-06T07:07:43;3.57;;;3.27;;
6821;SDS011;3449;48.728;8.968;2024-03-06T07:10:10;14.50;;;3.83;;
6821;SDS011;3449;48.728;8.968;2024-03-06T07:12:37;6.30;;;3.37;;
6821;SDS011;3449;48.728;8.968;2024-03-06T07:15:05;7.83;;;3.73;;
6821;SDS011;3449;48.728;8.968;2024-03-06T07:17:33;4.93;;;3.00;;
6821;SDS011;3449;48.728;8.968;2024-03-06T07:20:00;7.17;;;4.03;;
6821;SDS011;3449;48.728;8.968;2024-03-06T07:22:30;7.00;;;3.47;;
6821;SDS011;3449;48.728;8.968;2024-03-06T07:24:59;6.03;;;3.40;;
6821;SDS011;3449;48.728;8.968;2024-03-06T07:27:25;5.80;;;4.03;;
6821;SDS011;3449;48.728;8.968;2024-03-06T07:29:52;4.30;;;3.30;;
6821;SDS011;3449;48.728;8.968;2024-03-06T07:32:21;4.40;;;2.73;;
6821;SDS011;3449;48.728;8.968;2024-03-06T07:34:48;6.27;;;3.40;;
6821;SDS011;3449;48.728;8.968;2024-03-06T07:37:14;6.80;;;3.90;;
6821;SDS011;3449;48.728;8.968;2024-03-06T07:39:41;5.00;;;3.77;;
6821;SDS011;3449;48.728;8.968;2024-03-06T07:42:08;8.33;;;3.97;;
6821;SDS011;3449;48.728;8.968;2024-03-06T07:44:35;7.00;;;3.90;;
6821;SDS011;3449;48.728;8.968;2024-03-06T07:47:02;4.13;;;3.30;;
6821;SDS011;3449;48.728;8.968;2024-03-06T07:49:31;5.17;;;4.13;;
6821;SDS011;3449;48.728;8.968;2024-03-06T07:51:58;6.40;;;3.33;;
6821;SDS011;3449;48.728;8.968;2024-03-06T07:54:25;5.17;;;3.33;;
6821;SDS011;3449;48.728;8.968;2024-03-06T07:56:51;4.97;;;3.60;;
6821;SDS011;3449;48.728;8.968;2024-03-06T07:59:18;6.47;;;3.73;;
6821;SDS011;3449;48.728;8.968;2024-03-06T08:01:45;5.43;;;3.30;;
6821;SDS011;3449;48.728;8.968;2024-03-06T08:04:13;5.70;;;3.87;;
6821;SDS011;3449;48.728;8.968;2024-03-06T08:06:41;6.03;;;3.67;;
6821;SDS011;3449;48.728;8.968;2024-03-06T08:09:08;4.20;;;3.20;;
6821;SDS011;3449;48.728;8.968;2024-03-06T08:11:36;5.77;;;3.13;;
6821;SDS011;3449;48.728;8.968;2024-03-06T08:14:02;6.80;;;4.03;;
6821;SDS011;3449;48.728;8.968;2024-03-06T08:16:29;5.73;;;3.80;;
6821;SDS011;3449;48.728;8.968;2024-03-06T08:18:56;4.73;;;3.50;;
6821;SDS011;3449;48.728;8.968;2024-03-06T08:21:25;5.40;;;3.80;;
6821;SDS011;3449;48.728;8.968;2024-03-06T08:23:53;6.10;;;4.20;;
6821;SDS011;3449;48.728;8.968;2024-03-06T08:26:20;5.03;;;3.77;;
6821;SDS011;3449;48.728;8.968;2024-03-06T08:28:47;5.63;;;3.20;;
6821;SDS011;3449;48.728;8.968;2024-03-06T08:31:14;4.60;;;3.23;;
6821;SDS011;3449;48.728;8.968;2024-03-06T08:33:40;6.93;;;3.93;;
6821;SDS011;3449;48.728;8.968;2024-03-06T08:36:09;4.30;;;3.60;;
6821;SDS011;3449;48.728;8.968;2024-03-06T08:38:36;5.23;;;3.50;;
6821;SDS011;3449;48.728;8.968;2024-03-06T08:41:04;8.17;;;3.17;;
6821;SDS011;3449;48.728;8.968;2024-03-06T08:43:31;7.53;;;3.90;;
6821;SDS011;3449;48.728;8.968;2024-03-06T08:45:58;5.37;;;3.90;;
6821;SDS011;3449;48.728;8.968;2024-03-06T08:48:25;6.43;;;3.50;;
6821;SDS011;3449;48.728;8.968;2024-03-06T08:50:52;6.30;;;3.23;;
6821;SDS011;3449;48.728;8.968;2024-03-06T08:53:19;4.67;;;3.50;;
6821;SDS011;3449;48.728;8.968;2024-03-06T08:55:46;7.50;;;3.83;;
6821;SDS011;3449;48.728;8.968;2024-03-06T08:58:14;6.07;;;3.50;;
6821;SDS011;3449;48.728;8.968;2024-03-06T09:00:41;4.07;;;3.30;;
6821;SDS011;3449;48.728;8.968;2024-03-06T09:03:08;7.23;;;4.10;;
6821;SDS011;3449;48.728;8.968;2024-03-06T09:05:35;6.77;;;3.83;;
6821;SDS011;3449;48.728;8.968;2024-03-06T09:08:01;5.20;;;3.10;;
6821;SDS011;3449;48.728;8.968;2024-03-06T09:10:28;3.83;;;3.40;;
6821;SDS011;3449;48.728;8.968;2024-03-06T09:12:55;5.70;;;3.57;;
6821;SDS011;3449;48.728;8.968;2024-03-06T09:15:24;6.40;;;3.83;;
6821;SDS011;3449;48.728;8.968;2024-03-06T09:17:50;5.60;;;3.97;;
6821;SDS011;3449;48.728;8.968;2024-03-06T09:20:17;4.47;;;3.70;;
6821;SDS011;3449;48.728;8.968;2024-03-06T09:22:44;4.93;;;3.63;;
6821;SDS011;3449;48.728;8.968;2024-03-06T09:25:11;7.47;;;4.03;;
6821;SDS011;3449;48.728;8.968;2024-03-06T09:27:39;7.07;;;4.37;;
6821;SDS011;3449;48.728;8.968;2024-03-06T09:30:07;8.80;;;4.17;;
6821;SDS011;3449;48.728;8.968;2024-03-06T09:32:37;7.40;;;4.03;;
6821;SDS011;3449;48.728;8.968;2024-03-06T09:35:04;4.23;;;3.83;;
6821;SDS011;3449;48.728;8.968;2024-03-06T09:37:32;7.80;;;4.37;;
6821;SDS011;3449;48.728;8.968;2024-03-06T09:39:59;8.27;;;5.60;;
6821;SDS011;3449;48.728;8.968;2024-03-06T09:42:25;5.43;;;4.50;;
6821;SDS011;3449;48.728;8.968;2024-03-06T09:44:52;4.90;;;4.37;;
6821;SDS011;3449;48.728;8.968;2024-03-06T09:47:21;8.20;;;5.83;;
6821;SDS011;3449;48.728;8.968;2024-03-06T09:49:51;12.50;;;5.50;;
6821;SDS011;3449;48.728;8.968;2024-03-06T09:52:19;9.23;;;6.17;;
6821;SDS011;3449;48.728;8.968;2024-03-06T09:54:47;9.70;;;5.50;;
6821;SDS011;3449;48.728;8.968;2024-03-06T09:57:15;7.73;;;6.10;;
6821;SDS011;3449;48.728;8.968;2024-03-06T09:59:42;5.90;;;5.10;;
6821;SDS011;3449;48.728;8.968;2024-03-06T10:02:13;7.30;;;5.27;;
6821;SDS011;3449;48.728;8.968;2024-03-06T10:04:56;8.40;;;5.50;;
6821;SDS011;3449;48.728;8.968;2024-03-06T10:07:23;6.50;;;5.57;;
6821;SDS011;3449;48.728;8.968;2024-03-06T10:09:51;7.67;;;6.17;;
6821;SDS011;3449;48.728;8.968;2024-03-06T10:12:18;10.13;;;6.43;;
6821;SDS011;3449;48.728;8.968;2024-03-06T10:14:49;13.73;;;6.10;;
6821;SDS011;3449;48.728;8.968;2024-03-06T10:17:20;10.90;;;7.77;;
6821;SDS011;3449;48.728;8.968;2024-03-06T10:19:52;11.43;;;7.40;;
6821;SDS011;3449;48.728;8.968;2024-03-06T10:22:27;12.80;;;7.10;;
6821;SDS011;3449;48.728;8.968;2024-03-06T10:24:55;11.20;;;7.00;;
6821;SDS011;3449;48.728;8.968;2024-03-06T10:27:22;12.23;;;8.03;;
6821;SDS011;3449;48.728;8.968;2024-03-06T10:30:00;12.23;;;7.90;;
6821;SDS011;3449;48.728;8.968;2024-03-06T10:32:28;10.83;;;8.20;;
6821;SDS011;3449;48.728;8.968;2024-03-06T10:34:56;16.07;;;10.00;;
6821;SDS011;3449;48.728;8.968;2024-03-06T10:37:23;15.70;;;9.90;;
6821;SDS011;3449;48.728;8.968;2024-03-06T10:39:52;17.90;;;11.93;;
6821;SDS011;3449;48.728;8.968;2024-03-06T10:42:23;15.57;;;9.70;;
6821;SDS011;3449;48.728;8.968;2024-03-06T10:44:54;19.37;;;9.97;;
6821;SDS011;3449;48.728;8.968;2024-03-06T10:47:25;14.97;;;10.40;;
6821;SDS011;3449;48.728;8.968;2024-03-06T10:49:54;16.77;;;12.30;;
6821;SDS011;3449;48.728;8.968;2024-03-06T10:52:25;18.50;;;10.93;;
6821;SDS011;3449;48.728;8.968;2024-03-06T10:54:55;14.70;;;10.17;;
6821;SDS011;3449;48.728;8.968;2024-03-06T10:57:25;14.20;;;10.97;;
6821;SDS011;3449;48.728;8.968;2024-03-06T10:59:53;14.67;;;10.53;;
6821;SDS011;3449;48.728;8.968;2024-03-06T11:02:20;20.73;;;12.20;;
6821;SDS011;3449;48.728;8.968;2024-03-06T11:04:49;14.47;;;11.07;;
6821;SDS011;3449;48.728;8.968;2024-03-06T11:07:17;21.73;;;12.77;;
6821;SDS011;3449;48.728;8.968;2024-03-06T11:09:44;18.23;;;10.90;;
6821;SDS011;3449;48.728;8.968;2024-03-06T11:12:27;19.93;;;12.00;;
6821;SDS011;3449;48.728;8.968;2024-03-06T11:14:58;15.90;;;11.47;;
6821;SDS011;3449;48.728;8.968;2024-03-06T11:17:26;21.50;;;13.23;;
6821;SDS011;3449;48.728;8.968;2024-03-06T11:20:09;22.67;;;14.37;;
6821;SDS011;3449;48.728;8.968;2024-03-06T11:28:30;24.90;;;15.03;;
6821;SDS011;3449;48.728;8.968;2024-03-06T11:30:58;22.20;;;14.93;;
6821;SDS011;3449;48.728;8.968;2024-03-06T11:33:36;21.97;;;13.20;;
6821;SDS011;3449;48.728;8.968;2024-03-06T11:36:12;21.80;;;13.90;;
6821;SDS011;3449;48.728;8.968;2024-03-06T11:38:42;26.87;;;15.60;;
6821;SDS011;3449;48.728;8.968;2024-03-06T11:41:12;28.37;;;14.60;;
6821;SDS011;3449;48.728;8.968;2024-03-06T11:43:43;27.13;;;15.07;;
6821;SDS011;3449;48.728;8.968;2024-03-06T11:46:11;24.57;;;15.23;;
6821;SDS011;3449;48.728;8.968;2024-03-06T11:48:38;23.67;;;14.17;;
6821;SDS011;3449;48.728;8.968;2024-03-06T11:51:05;23.00;;;13.43;;
6821;SDS011;3449;48.728;8.968;2024-03-06T11:53:32;27.13;;;14.53;;
6821;SDS011;3449;48.728;8.968;2024-03-06T11:56:00;26.20;;;13.90;;
6821;SDS011;3449;48.728;8.968;2024-03-06T11:58:27;21.97;;;14.40;;
6821;SDS011;3449;48.728;8.968;2024-03-06T12:00:55;21.37;;;13.80;;
6821;SDS011;3449;48.728;8.968;2024-03-06T12:03:22;21.70;;;16.30;;
6821;SDS011;3449;48.728;8.968;2024-03-06T12:05:50;36.30;;;21.83;;
6821;SDS011;3449;48.728;8.968;2024-03-06T12:08:17;24.80;;;16.20;;
6821;SDS011;3449;48.728;8.968;2024-03-06T12:10:45;24.67;;;14.90;;
6821;SDS011;3449;48.728;8.968;2024-03-06T12:13:13;20.10;;;13.97;;
6821;SDS011;3449;48.728;8.968;2024-03-06T12:15:42;23.97;;;14.77;;
6821;SDS011;3449;48.728;8.968;2024-03-06T12:18:11;27.37;;;15.57;;
6821;SDS011;3449;48.728;8.968;2024-03-06T12:20:40;24.80;;;14.30;;
6821;SDS011;3449;48.728;8.968;2024-03-06T12:23:18;24.20;;;15.70;;
6821;SDS011;3449;48.728;8.968;2024-03-06T12:25:47;24.57;;;14.33;;
6821;SDS011;3449;48.728;8.968;2024-03-06T12:28:14;25.20;;;14.10;;
6821;SDS011;3449;48.728;8.968;2024-03-06T12:30:42;22.17;;;13.23;;
6821;SDS011;3449;48.728;8.968;2024-03-06T12:33:11;26.50;;;14.80;;
6821;SDS011;3449;48.728;8.968;2024-03-06T12:35:43;22.80;;;13.93;;
6821;SDS011;3449;48.728;8.968;2024-03-06T12:38:13;26.23;;;15.20;;
6821;SDS011;3449;48.728;8.968;2024-03-06T12:40:41;24.73;;;14.57;;
6821;SDS011;3449;48.728;8.968;2024-03-06T12:43:08;25.27;;;13.97;;
6821;SDS011;3449;48.728;8.968;2024-03-06T12:45:36;29.40;;;16.47;;
6821;SDS011;3449;48.728;8.968;2024-03-06T12:48:03;24.20;;;14.43;;
6821;SDS011;3449;48.728;8.968;2024-03-06T12:50:33;27.90;;;16.13;;
6821;SDS011;3449;48.728;8.968;2024-03-06T12:53:00;26.97;;;15.37;;
6821;SDS011;3449;48.728;8.968;2024-03-06T12:55:29;27.60;;;14.60;;
6821;SDS011;3449;48.728;8.968;2024-03-06T12:57:57;28.43;;;15.90;;
6821;SDS011;3449;48.728;8.968;2024-03-06T13:00:24;22.90;;;14.13;;
6821;SDS011;3449;48.728;8.968;2024-03-06T13:02:51;27.87;;;15.10;;
6821;SDS011;3449;48.728;8.968;2024-03-06T13:05:18;27.03;;;15.17;;
6821;SDS011;3449;48.728;8.968;2024-03-06T13:07:46;23.20;;;14.87;;
6821;SDS011;3449;48.728;8.968;2024-03-06T13:10:13;24.70;;;13.40;;
6821;SDS011;3449;48.728;8.968;2024-03-06T13:12:39;23.13;;;14.57;;
6821;SDS011;3449;48.728;8.968;2024-03-06T13:15:08;23.73;;;14.47;;
6821;SDS011;3449;48.728;8.968;2024-03-06T13:17:35;22.50;;;13.70;;
6821;SDS011;3449;48.728;8.968;2024-03-06T13:20:02;24.13;;;15.40;;
6821;SDS011;3449;48.728;8.968;2024-03-06T13:22:29;22.30;;;11.20;;
6821;SDS011;3449;48.728;8.968;2024-03-06T13:24:58;19.87;;;13.10;;
6821;SDS011;3449;48.728;8.968;2024-03-06T13:27:25;22.73;;;13.47;;
6821;SDS011;3449;48.728;8.968;2024-03-06T13:29:52;23.23;;;13.97;;
6821;SDS011;3449;48.728;8.968;2024-03-06T13:32:19;21.67;;;13.43;;
6821;SDS011;3449;48.728;8.968;2024-03-06T13:34:46;20.77;;;13.90;;
6821;SDS011;3449;48.728;8.968;2024-03-06T13:37:12;27.60;;;15.57;;
6821;SDS011;3449;48.728;8.968;2024-03-06T13:39:39;24.37;;;13.50;;
6821;SDS011;3449;48.728;8.968;2024-03-06T13:42:08;22.10;;;13.40;;
6821;SDS011;3449;48.728;8.968;2024-03-06T13:44:35;25.10;;;14.97;;
6821;SDS011;3449;48.728;8.968;2024-03-06T13:47:02;21.73;;;13.80;;
6821;SDS011;3449;48.728;8.968;2024-03-06T13:49:37;27.23;;;13.50;;
6821;SDS011;3449;48.728;8.968;2024-03-06T13:52:04;22.23;;;13.50;;
6821;SDS011;3449;48.728;8.968;2024-03-06T13:54:35;19.77;;;13.10;;
6821;SDS011;3449;48.728;8.968;2024-03-06T13:57:03;20.40;;;12.97;;
6821;SDS011;3449;48.728;8.968;2024-03-06T13:59:32;19.97;;;12.23;;
6821;SDS011;3449;48.728;8.968;2024-03-06T14:01:59;20.07;;;12.80;;
6821;SDS011;3449;48.728;8.968;2024-03-06T14:04:28;24.40;;;13.33;;
6821;SDS011;3449;48.728;8.968;2024-03-06T14:06:55;19.20;;;12.47;;
6821;SDS011;3449;48.728;8.968;2024-03-06T14:09:23;22.63;;;13.10;;
6821;SDS011;3449;48.728;8.968;2024-03-06T14:11:50;19.33;;;12.43;;
6821;SDS011;3449;48.728;8.968;2024-03-06T14:14:17;25.63;;;15.63;;
6821;SDS011;3449;48.728;8.968;2024-03-06T14:16:46;22.50;;;14.37;;
6821;SDS011;3449;48.728;8.968;2024-03-06T14:19:12;18.27;;;12.20;;
6821;SDS011;3449;48.728;8.968;2024-03-06T14:21:39;22.47;;;13.10;;
6821;SDS011;3449;48.728;8.968;2024-03-06T14:24:06;19.93;;;13.87;;
6821;SDS011;3449;48.728;8.968;2024-03-06T14:26:34;23.57;;;12.90;;
6821;SDS011;3449;48.728;8.968;2024-03-06T14:29:02;18.40;;;12.87;;
6821;SDS011;3449;48.728;8.968;2024-03-06T14:31:31;18.43;;;12.40;;
6821;SDS011;3449;48.728;8.968;2024-03-06T14:33:59;19.93;;;12.67;;
6821;SDS011;3449;48.728;8.968;2024-03-06T14:36:26;22.80;;;15.27;;
6821;SDS011;3449;48.728;8.968;2024-03-06T14:38:53;18.20;;;13.40;;
6821;SDS011;3449;48.728;8.968;2024-03-06T14:41:20;21.17;;;12.77;;
6821;SDS011;3449;48.728;8.968;2024-03-06T14:43:47;20.80;;;13.80;;
6821;SDS011;3449;48.728;8.968;2024-03-06T14:46:13;22.77;;;14.40;;
6821;SDS011;3449;48.728;8.968;2024-03-06T14:48:40;20.17;;;13.03;;
6821;SDS011;3449;48.728;8.968;2024-03-06T14:51:09;27.27;;;14.93;;
6821;SDS011;3449;48.728;8.968;2024-03-06T14:53:36;28.67;;;16.53;;
6821;SDS011;3449;48.728;8.968;2024-03-06T14:56:03;26.73;;;15.77;;
6821;SDS011;3449;48.728;8.968;2024-03-06T14:58:31;23.00;;;15.00;;
6821;SDS011;3449;48.728;8.968;2024-03-06T15:00:57;21.87;;;12.87;;
6821;SDS011;3449;48.728;8.968;2024-03-06T15:03:24;20.60;;;13.67;;
6821;SDS011;3449;48.728;8.968;2024-03-06T15:05:51;23.73;;;14.60;;
6821;SDS011;3449;48.728;8.968;2024-03-06T15:08:19;25.63;;;14.90;;
6821;SDS011;3449;48.728;8.968;2024-03-06T15:10:46;22.30;;;14.80;;
6821;SDS011;3449;48.728;8.968;2024-03-06T15:13:13;17.40;;;10.40;;